createdAt,value
2023-02-01T00:01:09.481Z,16.33
2023-02-01T00:03:36.735Z,6.93
2023-02-01T00:06:04.043Z,9.13
2023-02-01T00:08:31.316Z,12.70
2023-02-01T00:11:07.634Z,10.37
2023-02-01T00:13:41.241Z,6.40
2023-02-01T00:16:17.452Z,10.23
2023-02-01T00:18:46.233Z,9.37
2023-02-01T00:21:15.438Z,6.63
2023-02-01T00:23:42.755Z,6.90
2023-02-01T00:26:20.644Z,6.77
2023-02-01T00:28:47.740Z,7.70
2023-02-01T00:31:16.069Z,8.47
2023-02-01T00:33:43.429Z,7.87
2023-02-01T00:36:11.034Z,9.83
2023-02-01T00:38:39.639Z,7.83
2023-02-01T00:41:10.778Z,12.93
2023-02-01T00:43:37.859Z,16.60
2023-02-01T00:46:05.114Z,7.27
2023-02-01T00:48:33.019Z,11.07
2023-02-01T00:51:10.288Z,9.60
2023-02-01T00:53:37.965Z,9.37
2023-02-01T00:56:06.272Z,8.00
2023-02-01T00:58:34.475Z,6.87
2023-02-01T01:01:16.973Z,10.40
2023-02-01T01:03:48.417Z,6.90
2023-02-01T01:06:19.184Z,6.50
2023-02-01T01:08:46.474Z,7.13
2023-02-01T01:11:21.051Z,5.70
2023-02-01T01:13:50.995Z,5.17
2023-02-01T01:16:19.297Z,9.33
2023-02-01T01:18:47.721Z,6.80
2023-02-01T01:21:17.332Z,8.07
2023-02-01T01:23:46.520Z,5.67
2023-02-01T01:26:20.865Z,7.63
2023-02-01T01:28:48.512Z,5.13
2023-02-01T01:31:18.093Z,8.23
2023-02-01T01:33:49.357Z,7.20
2023-02-01T01:36:16.920Z,4.17
2023-02-01T01:38:44.427Z,7.70
2023-02-01T01:41:17.479Z,10.60
2023-02-01T01:44:02.440Z,7.63
2023-02-01T01:46:36.543Z,8.50
2023-02-01T01:49:16.125Z,5.23
2023-02-01T01:51:50.496Z,5.83
2023-02-01T01:54:31.021Z,11.97
2023-02-01T01:57:05.859Z,8.93
2023-02-01T01:59:37.578Z,6.07
2023-02-01T02:02:05.216Z,6.90
2023-02-01T02:04:33.886Z,5.40
2023-02-01T02:07:05.783Z,11.43
2023-02-01T02:09:32.900Z,13.20
2023-02-01T02:11:59.929Z,13.20
2023-02-01T02:14:27.903Z,14.90
2023-02-01T02:17:13.627Z,20.30
2023-02-01T02:20:18.912Z,23.80
2023-02-01T02:23:24.354Z,35.93
2023-02-01T02:26:07.301Z,10.23
2023-02-01T02:29:25.602Z,8.37
2023-02-01T02:32:42.854Z,7.33
2023-02-01T02:35:30.718Z,8.37
2023-02-01T02:38:19.295Z,6.97
2023-02-01T02:41:36.030Z,8.40
2023-02-01T02:44:31.446Z,6.27
2023-02-01T02:47:23.999Z,6.10
2023-02-01T02:50:36.875Z,10.00
2023-02-01T02:53:37.826Z,5.73
2023-02-01T02:56:26.946Z,7.13
2023-02-01T02:59:13.667Z,7.67
2023-02-01T03:02:00.424Z,6.67
2023-02-01T03:04:27.631Z,14.03
2023-02-01T03:06:55.620Z,5.67
2023-02-01T03:09:36.942Z,8.90
2023-02-01T03:12:29.400Z,7.27
2023-02-01T03:15:05.163Z,10.70
2023-02-01T03:17:40.942Z,10.13
2023-02-01T03:20:11.870Z,8.03
2023-02-01T03:22:41.062Z,6.03
2023-02-01T03:25:27.021Z,6.77
2023-02-01T03:28:07.407Z,7.63
2023-02-01T03:30:39.838Z,6.03
2023-02-01T03:33:31.182Z,10.07
2023-02-01T03:36:39.974Z,11.43
2023-02-01T03:39:49.342Z,11.40
2023-02-01T03:42:38.616Z,16.17
2023-02-01T03:45:20.208Z,7.43
2023-02-01T03:47:51.500Z,13.77
2023-02-01T03:50:24.873Z,8.67
2023-02-01T03:53:09.150Z,15.40
2023-02-01T03:55:37.845Z,8.93
2023-02-01T03:58:16.077Z,7.17
2023-02-01T04:00:57.264Z,10.53
2023-02-01T04:03:26.307Z,6.40
2023-02-01T04:05:54.221Z,10.87
2023-02-01T04:08:25.135Z,8.87
2023-02-01T04:10:52.504Z,8.50
2023-02-01T04:13:19.627Z,12.97
2023-02-01T04:15:50.782Z,10.33
2023-02-01T04:18:17.896Z,8.53
2023-02-01T04:20:46.009Z,10.27
2023-02-01T04:23:13.139Z,6.93
2023-02-01T04:25:40.209Z,9.70
2023-02-01T04:28:08.003Z,7.53
2023-02-01T04:30:35.449Z,9.23
2023-02-01T04:33:04.704Z,7.67
2023-02-01T04:35:32.087Z,10.23
2023-02-01T04:37:59.171Z,11.53
2023-02-01T04:40:26.292Z,7.57
2023-02-01T04:42:53.319Z,14.13
2023-02-01T04:45:20.347Z,10.73
2023-02-01T04:47:49.093Z,9.83
2023-02-01T04:50:16.768Z,6.77
2023-02-01T04:52:46.192Z,7.73
2023-02-01T04:55:14.389Z,9.00
2023-02-01T04:57:41.853Z,13.93
2023-02-01T05:00:11.304Z,6.77
2023-02-01T05:02:38.845Z,11.23
2023-02-01T05:05:06.886Z,8.70
2023-02-01T05:07:33.969Z,12.87
2023-02-01T05:10:01.059Z,45.13
2023-02-01T05:12:46.470Z,21.57
2023-02-01T05:15:13.552Z,13.63
2023-02-01T05:17:41.368Z,9.83
2023-02-01T05:20:10.203Z,10.03
2023-02-01T05:22:37.274Z,13.13
2023-02-01T05:25:05.421Z,10.87
2023-02-01T05:27:33.992Z,13.33
2023-02-01T05:30:01.038Z,18.23
2023-02-01T05:32:28.149Z,16.93
2023-02-01T05:34:55.416Z,8.80
2023-02-01T05:37:22.542Z,12.43
2023-02-01T05:39:49.713Z,7.33
2023-02-01T05:42:16.739Z,10.50
2023-02-01T05:44:43.948Z,16.03
2023-02-01T05:47:11.505Z,16.40
2023-02-01T05:49:38.529Z,14.40
2023-02-01T05:52:05.794Z,10.20
2023-02-01T05:54:32.898Z,10.73
2023-02-01T05:57:00.033Z,14.67
2023-02-01T05:59:27.095Z,14.70
2023-02-01T06:01:54.139Z,15.00
2023-02-01T06:04:21.252Z,16.10
2023-02-01T06:06:51.433Z,12.13
2023-02-01T06:09:18.690Z,11.90
2023-02-01T06:11:46.097Z,8.73
2023-02-01T06:14:13.161Z,11.60
2023-02-01T06:16:40.261Z,8.00
2023-02-01T06:19:07.343Z,10.73
2023-02-01T06:21:34.541Z,14.37
2023-02-01T06:24:01.607Z,13.03
2023-02-01T06:26:29.780Z,10.63
2023-02-01T06:28:57.440Z,9.03
2023-02-01T06:31:24.745Z,12.63
2023-02-01T06:33:53.063Z,9.13
2023-02-01T06:36:22.173Z,10.43
2023-02-01T06:38:49.655Z,9.47
2023-02-01T06:41:18.031Z,10.10
2023-02-01T06:43:46.559Z,9.43
2023-02-01T06:46:14.877Z,13.73
2023-02-01T06:48:42.314Z,6.53
2023-02-01T06:51:25.750Z,6.23
2023-02-01T06:53:53.298Z,8.77
2023-02-01T06:56:21.763Z,10.77
2023-02-01T06:58:49.342Z,7.57
2023-02-01T07:01:17.190Z,9.80
2023-02-01T07:03:48.398Z,8.77
2023-02-01T07:06:15.506Z,8.87
2023-02-01T07:08:42.679Z,11.70
2023-02-01T07:11:13.129Z,12.40
2023-02-01T07:13:40.794Z,11.60
2023-02-01T07:16:15.725Z,9.07
2023-02-01T07:18:43.217Z,14.47
2023-02-01T07:21:10.661Z,10.27
2023-02-01T07:23:38.410Z,9.27
2023-02-01T07:26:08.441Z,10.33
2023-02-01T07:28:37.029Z,7.30
2023-02-01T07:31:14.526Z,7.33
2023-02-01T07:33:41.944Z,10.43
2023-02-01T07:36:14.225Z,8.23
2023-02-01T07:38:41.601Z,7.90
2023-02-01T07:41:09.273Z,10.93
2023-02-01T07:43:37.219Z,13.40
2023-02-01T07:46:05.932Z,14.37
2023-02-01T07:48:34.826Z,8.47
2023-02-01T07:51:07.047Z,10.83
2023-02-01T07:53:35.541Z,11.47
2023-02-01T07:56:03.972Z,13.97
2023-02-01T07:58:31.293Z,10.87
2023-02-01T08:01:16.782Z,10.23
2023-02-01T08:03:43.924Z,13.43
2023-02-01T08:06:11.371Z,13.40
2023-02-01T08:08:38.998Z,16.33
2023-02-01T08:11:07.910Z,8.93
2023-02-01T08:13:36.279Z,18.20
2023-02-01T08:16:07.312Z,9.47
2023-02-01T08:18:35.973Z,8.80
2023-02-01T08:21:08.643Z,9.40
2023-02-01T08:23:37.691Z,11.07
2023-02-01T08:26:17.664Z,11.33
2023-02-01T08:28:48.845Z,10.83
2023-02-01T08:31:20.252Z,9.67
2023-02-01T08:33:53.048Z,11.97
2023-02-01T08:36:21.108Z,10.80
2023-02-01T08:38:48.745Z,15.50
2023-02-01T08:41:19.970Z,9.00
2023-02-01T08:43:47.619Z,15.00
2023-02-01T08:46:15.777Z,9.03
2023-02-01T08:48:42.918Z,12.00
2023-02-01T08:51:13.124Z,12.03
2023-02-01T08:53:44.007Z,10.00
2023-02-01T08:56:14.462Z,8.30
2023-02-01T08:58:42.139Z,13.40
2023-02-01T09:01:16.256Z,11.57
2023-02-01T09:03:43.831Z,12.20
2023-02-01T09:06:16.416Z,13.27
2023-02-01T09:08:44.654Z,11.77
2023-02-01T09:11:18.348Z,12.53
2023-02-01T09:13:45.559Z,14.20
2023-02-01T09:16:13.385Z,11.37
2023-02-01T09:18:50.501Z,17.50
2023-02-01T09:21:23.615Z,10.97
2023-02-01T09:23:52.563Z,18.20
2023-02-01T09:26:22.830Z,9.23
2023-02-01T09:28:50.143Z,8.97
2023-02-01T09:31:17.363Z,8.10
2023-02-01T09:33:44.553Z,13.07
2023-02-01T09:36:11.846Z,11.07
2023-02-01T09:38:44.476Z,9.70
2023-02-01T09:41:57.399Z,10.03
2023-02-01T09:44:48.607Z,8.50
2023-02-01T09:47:20.307Z,6.90
2023-02-01T09:50:00.311Z,9.87
2023-02-01T09:52:45.983Z,10.23
2023-02-01T09:55:36.120Z,13.70
2023-02-01T09:58:11.388Z,9.77
2023-02-01T10:00:41.295Z,13.17
2023-02-01T10:03:14.276Z,7.93
2023-02-01T10:06:03.739Z,7.70
2023-02-01T10:08:49.369Z,11.80
2023-02-01T10:11:51.822Z,11.67
2023-02-01T10:14:54.307Z,10.27
2023-02-01T10:17:46.837Z,7.73
2023-02-01T10:20:28.124Z,11.93
2023-02-01T10:23:34.293Z,14.70
2023-02-01T10:26:30.498Z,15.50
2023-02-01T10:29:06.050Z,10.57
2023-02-01T10:31:37.737Z,14.33
2023-02-01T10:34:32.591Z,10.87
2023-02-01T10:37:28.283Z,11.20
2023-02-01T10:39:57.653Z,14.73
2023-02-01T10:42:29.811Z,9.63
2023-02-01T10:45:02.060Z,8.63
2023-02-01T10:47:29.119Z,15.50
2023-02-01T10:50:04.987Z,12.33
2023-02-01T10:53:00.051Z,14.20
2023-02-01T10:55:29.448Z,23.77
2023-02-01T10:58:03.683Z,16.53
2023-02-01T11:01:06.318Z,10.73
2023-02-01T11:03:46.223Z,16.23
2023-02-01T11:06:31.397Z,17.17
2023-02-01T11:09:10.772Z,15.97
2023-02-01T11:11:50.050Z,20.97
2023-02-01T11:14:41.726Z,21.40
2023-02-01T11:17:16.174Z,22.17
2023-02-01T11:20:02.256Z,23.43
2023-02-01T11:22:30.687Z,19.80
2023-02-01T11:24:59.991Z,13.47
2023-02-01T11:27:28.173Z,11.77
2023-02-01T11:30:01.302Z,17.60
2023-02-01T11:32:29.063Z,37.93
2023-02-01T11:35:06.727Z,41.50
2023-02-01T11:37:44.338Z,22.20
2023-02-01T11:40:17.582Z,20.57
2023-02-01T11:43:14.863Z,16.93
2023-02-01T11:45:42.091Z,29.93
2023-02-01T11:48:26.179Z,21.50
2023-02-01T11:51:24.215Z,20.40
2023-02-01T11:54:34.941Z,23.20
2023-02-01T11:57:23.711Z,65.90
2023-02-01T12:00:46.535Z,56.87
2023-02-01T12:04:06.991Z,27.70
2023-02-01T12:07:03.368Z,169.80
2023-02-01T12:10:05.402Z,189.27
2023-02-01T12:12:59.566Z,175.23
2023-02-01T12:15:30.682Z,186.67
2023-02-01T12:18:25.155Z,199.93
2023-02-01T12:21:08.007Z,199.13
2023-02-01T12:24:05.462Z,192.57
2023-02-01T12:27:19.121Z,180.90
2023-02-01T12:29:47.022Z,173.03
2023-02-01T12:32:47.574Z,183.30
2023-02-01T12:35:50.633Z,181.30
2023-02-01T12:38:51.146Z,165.53
2023-02-01T12:41:31.578Z,168.97
2023-02-01T12:44:00.126Z,171.63
2023-02-01T12:46:56.951Z,175.50
2023-02-01T12:49:30.301Z,169.53
2023-02-01T12:52:14.001Z,187.33
2023-02-01T12:54:55.027Z,211.23
2023-02-01T12:57:31.679Z,176.33
2023-02-01T13:00:39.117Z,175.87
2023-02-01T13:03:36.662Z,170.10
2023-02-01T13:06:38.376Z,166.23
2023-02-01T13:09:27.961Z,174.30
2023-02-01T13:12:01.862Z,169.50
2023-02-01T13:14:53.714Z,178.43
2023-02-01T13:17:33.491Z,193.80
2023-02-01T13:20:08.570Z,178.13
2023-02-01T13:23:02.954Z,184.80
2023-02-01T13:25:51.573Z,179.33
2023-02-01T13:28:28.615Z,184.07
2023-02-01T13:31:32.191Z,175.37
2023-02-01T13:34:57.470Z,178.77
2023-02-01T13:37:53.094Z,174.80
2023-02-01T13:40:29.516Z,183.20
2023-02-01T13:43:25.396Z,179.87
2023-02-01T13:45:57.986Z,183.57
2023-02-01T13:48:34.016Z,176.33
2023-02-01T13:51:02.396Z,172.13
2023-02-01T13:53:34.629Z,178.33
2023-02-01T13:56:23.615Z,167.37
2023-02-01T13:58:52.454Z,171.17
2023-02-01T14:01:22.197Z,170.30
2023-02-01T14:04:00.686Z,174.73
2023-02-01T14:06:28.445Z,174.10
2023-02-01T14:09:38.282Z,173.23
2023-02-01T14:12:48.073Z,182.00
2023-02-01T14:15:24.452Z,178.87
2023-02-01T14:17:52.253Z,192.27
2023-02-01T14:20:54.182Z,175.17
2023-02-01T14:23:24.387Z,169.20
2023-02-01T14:26:05.645Z,181.53
2023-02-01T14:28:32.812Z,180.17
2023-02-01T14:31:00.799Z,178.00
2023-02-01T14:33:29.441Z,175.53
2023-02-01T14:36:09.258Z,174.30
2023-02-01T14:38:38.802Z,181.13
2023-02-01T14:41:34.696Z,178.53
2023-02-01T14:44:04.567Z,173.23
2023-02-01T14:47:23.798Z,174.43
2023-02-01T14:50:28.114Z,169.00
2023-02-01T14:53:12.945Z,168.60
2023-02-01T14:55:51.478Z,182.47
2023-02-01T14:58:43.209Z,174.30
2023-02-01T15:01:34.455Z,177.93
2023-02-01T15:04:13.263Z,185.27
2023-02-01T15:06:58.431Z,168.67
2023-02-01T15:09:40.279Z,177.93
2023-02-01T15:12:13.356Z,176.17
2023-02-01T15:14:52.759Z,175.40
2023-02-01T15:17:34.627Z,171.47
2023-02-01T15:20:23.989Z,173.70
2023-02-01T15:23:08.707Z,165.13
2023-02-01T15:25:40.096Z,182.13
2023-02-01T15:28:15.107Z,200.87
2023-02-01T15:30:58.925Z,201.50
2023-02-01T15:33:28.241Z,198.07
2023-02-01T15:36:09.423Z,183.17
2023-02-01T15:38:43.085Z,179.53
2023-02-01T15:41:24.387Z,174.00
2023-02-01T15:43:58.615Z,175.70
2023-02-01T15:46:40.454Z,175.77
2023-02-01T15:49:22.304Z,175.63
2023-02-01T15:51:50.170Z,175.73
2023-02-01T15:54:32.506Z,178.47
2023-02-01T15:57:03.488Z,175.27
2023-02-01T15:59:38.752Z,176.53
2023-02-01T16:02:06.283Z,177.03
2023-02-01T16:04:34.126Z,177.57
2023-02-01T16:07:05.498Z,174.33
2023-02-01T16:09:55.479Z,177.20
2023-02-01T16:12:46.963Z,168.83
2023-02-01T16:15:14.789Z,162.43
2023-02-01T16:17:43.450Z,177.53
2023-02-01T16:20:11.659Z,177.43
2023-02-01T16:22:39.081Z,174.63
2023-02-01T16:25:07.088Z,166.20
2023-02-01T16:27:34.539Z,177.60
2023-02-01T16:30:02.188Z,190.70
2023-02-01T16:32:29.611Z,179.73
2023-02-01T16:34:58.592Z,172.17
2023-02-01T16:37:28.576Z,340.80
2023-02-01T16:39:55.685Z,183.10
2023-02-01T16:42:22.815Z,172.87
2023-02-01T16:44:49.927Z,170.73
2023-02-01T16:47:23.899Z,174.13
2023-02-01T16:49:51.363Z,188.63
2023-02-01T16:52:25.528Z,169.57
2023-02-01T16:54:53.847Z,167.67
2023-02-01T16:57:24.935Z,177.20
2023-02-01T16:59:52.185Z,176.27
2023-02-01T17:02:21.899Z,171.53
2023-02-01T17:04:49.840Z,173.83
2023-02-01T17:07:19.763Z,182.83
2023-02-01T17:09:48.114Z,174.97
2023-02-01T17:12:24.213Z,171.47
2023-02-01T17:14:52.362Z,179.83
2023-02-01T17:17:29.083Z,168.90
2023-02-01T17:20:05.685Z,176.07
2023-02-01T17:22:32.820Z,174.57
2023-02-01T17:24:59.868Z,174.70
2023-02-01T17:27:26.964Z,176.73
2023-02-01T17:29:57.152Z,191.00
2023-02-01T17:32:26.562Z,176.70
2023-02-01T17:34:53.716Z,168.67
2023-02-01T17:37:34.573Z,178.37
2023-02-01T17:40:02.241Z,180.67
2023-02-01T17:42:30.822Z,180.37
2023-02-01T17:45:02.722Z,179.10
2023-02-01T17:47:29.840Z,167.83
2023-02-01T17:49:57.348Z,182.83
2023-02-01T17:52:26.265Z,170.27
2023-02-01T17:54:54.275Z,174.23
2023-02-01T17:57:21.993Z,177.63
2023-02-01T17:59:49.184Z,174.17
2023-02-01T18:02:22.912Z,179.03
2023-02-01T18:04:51.479Z,165.13
2023-02-01T18:07:18.832Z,175.70
2023-02-01T18:09:45.905Z,174.10
2023-02-01T18:12:25.480Z,176.67
2023-02-01T18:14:52.515Z,178.33
2023-02-01T18:17:20.192Z,173.53
2023-02-01T18:19:47.317Z,171.80
2023-02-01T18:22:21.743Z,171.63
2023-02-01T18:24:48.873Z,173.47
2023-02-01T18:27:15.917Z,181.93
2023-02-01T18:29:42.956Z,170.27
2023-02-01T18:32:10.991Z,178.77
2023-02-01T18:34:38.463Z,167.03
2023-02-01T18:37:05.526Z,173.67
2023-02-01T18:39:32.565Z,177.07
2023-02-01T18:41:59.938Z,178.57
2023-02-01T18:44:27.011Z,186.73
2023-02-01T18:46:54.079Z,183.90
2023-02-01T18:49:21.161Z,172.97
2023-02-01T18:51:48.331Z,199.03
2023-02-01T18:54:15.523Z,171.37
2023-02-01T18:56:43.360Z,171.47
2023-02-01T18:59:11.908Z,174.07
2023-02-01T19:01:39.179Z,166.57
2023-02-01T19:04:07.402Z,164.93
2023-02-01T19:06:38.386Z,166.77
2023-02-01T19:09:05.807Z,161.33
2023-02-01T19:11:32.885Z,174.10
2023-02-01T19:13:59.924Z,160.93
2023-02-01T19:16:27.394Z,164.33
2023-02-01T19:18:54.750Z,165.17
2023-02-01T19:21:21.788Z,171.67
2023-02-01T19:23:48.878Z,164.50
2023-02-01T19:26:18.162Z,164.80
2023-02-01T19:28:47.862Z,171.37
2023-02-01T19:31:16.804Z,167.93
2023-02-01T19:33:44.378Z,171.37
2023-02-01T19:36:11.714Z,176.60
2023-02-01T19:38:39.204Z,160.37
2023-02-01T19:41:06.822Z,166.57
2023-02-01T19:43:34.104Z,158.30
2023-02-01T19:46:02.957Z,166.53
2023-02-01T19:48:31.556Z,162.60
2023-02-01T19:50:59.321Z,159.93
2023-02-01T19:53:28.045Z,163.03
2023-02-01T19:55:59.134Z,165.17
2023-02-01T19:58:26.422Z,166.03
2023-02-01T20:00:57.348Z,159.10
2023-02-01T20:03:24.540Z,167.83
2023-02-01T20:05:57.566Z,171.57
2023-02-01T20:08:25.369Z,166.57
2023-02-01T20:10:52.458Z,169.83
2023-02-01T20:13:19.826Z,184.30
2023-02-01T20:15:47.273Z,202.13
2023-02-01T20:18:15.226Z,196.03
2023-02-01T20:20:42.734Z,169.23
2023-02-01T20:23:09.942Z,170.07
2023-02-01T20:25:38.405Z,176.37
2023-02-01T20:28:05.736Z,171.83
2023-02-01T20:30:33.296Z,197.37
2023-02-01T20:33:00.466Z,176.80
2023-02-01T20:35:28.954Z,172.70
2023-02-01T20:37:58.969Z,160.07
2023-02-01T20:40:26.174Z,166.00
2023-02-01T20:42:53.823Z,169.27
2023-02-01T20:45:21.213Z,168.40
2023-02-01T20:47:52.810Z,211.60
2023-02-01T20:50:20.200Z,164.30
2023-02-01T20:52:47.480Z,167.20
2023-02-01T20:55:14.632Z,163.20
2023-02-01T20:57:42.410Z,159.17
2023-02-01T21:00:10.607Z,171.00
2023-02-01T21:02:37.766Z,174.23
2023-02-01T21:05:05.303Z,163.33
2023-02-01T21:07:32.354Z,163.70
2023-02-01T21:09:59.561Z,159.93
2023-02-01T21:12:26.566Z,165.37
2023-02-01T21:14:55.342Z,165.87
2023-02-01T21:17:23.229Z,178.73
2023-02-01T21:19:50.291Z,163.27
2023-02-01T21:22:17.363Z,164.53
2023-02-01T21:24:44.526Z,183.70
2023-02-01T21:27:12.217Z,175.33
2023-02-01T21:29:39.770Z,168.20
2023-02-01T21:32:08.563Z,185.50
2023-02-01T21:34:36.201Z,184.87
2023-02-01T21:37:03.691Z,180.40
2023-02-01T21:39:30.800Z,164.40
2023-02-01T21:42:17.629Z,167.50
2023-02-01T21:44:48.625Z,167.33
2023-02-01T21:47:18.513Z,166.27
2023-02-01T21:49:47.074Z,168.27
2023-02-01T21:52:16.407Z,162.97
2023-02-01T21:54:43.659Z,161.23
2023-02-01T21:57:13.755Z,163.00
2023-02-01T21:59:43.254Z,171.73
2023-02-01T22:02:14.553Z,174.57
2023-02-01T22:04:42.210Z,162.00
2023-02-01T22:07:10.597Z,163.67
2023-02-01T22:09:38.077Z,179.77
2023-02-01T22:12:05.418Z,166.37
2023-02-01T22:14:33.473Z,167.30
2023-02-01T22:17:00.753Z,171.40
2023-02-01T22:19:27.907Z,164.20
2023-02-01T22:21:55.120Z,165.93
2023-02-01T22:24:22.399Z,167.33
2023-02-01T22:26:50.024Z,165.87
2023-02-01T22:29:19.308Z,161.60
2023-02-01T22:31:46.707Z,166.20
2023-02-01T22:34:14.116Z,161.17
2023-02-01T22:36:41.374Z,168.00
2023-02-01T22:39:08.914Z,161.70
2023-02-01T22:41:35.995Z,159.40
2023-02-01T22:44:03.033Z,161.43
2023-02-01T22:46:33.327Z,161.97
2023-02-01T22:49:01.215Z,164.70
2023-02-01T22:51:31.913Z,168.43
2023-02-01T22:53:59.426Z,164.10
2023-02-01T22:56:31.564Z,163.97
2023-02-01T22:59:02.417Z,161.37
2023-02-01T23:01:30.010Z,157.60
2023-02-01T23:04:03.189Z,158.97
2023-02-01T23:06:32.157Z,156.20
2023-02-01T23:09:13.718Z,158.43
2023-02-01T23:11:41.888Z,153.57
2023-02-01T23:14:11.072Z,157.27
2023-02-01T23:16:39.245Z,159.20
2023-02-01T23:19:07.144Z,158.40
2023-02-01T23:21:34.558Z,159.33
2023-02-01T23:24:04.849Z,159.53
2023-02-01T23:26:32.567Z,156.53
2023-02-01T23:29:00.719Z,162.17
2023-02-01T23:31:32.996Z,159.43
2023-02-01T23:34:02.337Z,159.10
2023-02-01T23:36:30.836Z,158.77
2023-02-01T23:38:58.782Z,157.67
2023-02-01T23:41:29.970Z,158.97
2023-02-01T23:44:00.689Z,162.20
2023-02-01T23:46:38.183Z,160.40
2023-02-01T23:49:07.885Z,157.17
2023-02-01T23:51:35.872Z,157.50
2023-02-01T23:54:04.213Z,160.23
2023-02-01T23:56:42.140Z,162.57
2023-02-01T23:59:18.709Z,158.17
